sensor_id;sensor_type;location;lat;lon;timestamp;pressure;altitude;pressure_sealevel;temperature;humidity
35489;BME280;21602;55.670;37.578;2023-05-23T00:00:06;99573.91;;;15.61;79.84
35489;BME280;21602;55.670;37.578;2023-05-23T00:02:39;99563.41;;;15.59;79.87
35489;BME280;21602;55.670;37.578;2023-05-23T00:05:05;99559.91;;;15.59;79.91
35489;BME280;21602;55.670;37.578;2023-05-23T00:07:31;99561.00;;;15.58;79.90
35489;BME280;21602;55.670;37.578;2023-05-23T00:09:57;99564.19;;;15.55;79.84
35489;BME280;21602;55.670;37.578;2023-05-23T00:12:23;99566.88;;;15.55;79.88
35489;BME280;21602;55.670;37.578;2023-05-23T00:14:49;99573.06;;;15.55;79.85
35489;BME280;21602;55.670;37.578;2023-05-23T00:17:18;99572.00;;;15.56;79.86
35489;BME280;21602;55.670;37.578;2023-05-23T00:19:44;99570.13;;;15.57;79.84
35489;BME280;21602;55.670;37.578;2023-05-23T00:22:13;99572.00;;;15.56;79.88
35489;BME280;21602;55.670;37.578;2023-05-23T00:24:41;99563.38;;;15.54;79.76
35489;BME280;21602;55.670;37.578;2023-05-23T00:27:07;99570.09;;;15.52;79.75
35489;BME280;21602;55.670;37.578;2023-05-23T00:29:32;99574.66;;;15.51;79.75
35489;BME280;21602;55.670;37.578;2023-05-23T00:31:58;99571.47;;;15.54;79.74
35489;BME280;21602;55.670;37.578;2023-05-23T00:34:25;99567.97;;;15.54;79.55
35489;BME280;21602;55.670;37.578;2023-05-23T00:36:51;99566.84;;;15.50;79.50
35489;BME280;21602;55.670;37.578;2023-05-23T00:39:18;99571.94;;;15.46;79.59
35489;BME280;21602;55.670;37.578;2023-05-23T00:41:46;99574.59;;;15.41;79.82
35489;BME280;21602;55.670;37.578;2023-05-23T00:44:12;99565.44;;;15.37;79.82
35489;BME280;21602;55.670;37.578;2023-05-23T00:46:38;99565.69;;;15.35;79.87
35489;BME280;21602;55.670;37.578;2023-05-23T00:49:04;99570.28;;;15.35;80.00
35489;BME280;21602;55.670;37.578;2023-05-23T00:51:30;99571.06;;;15.35;79.71
35489;BME280;21602;55.670;37.578;2023-05-23T00:53:57;99571.63;;;15.37;79.77
35489;BME280;21602;55.670;37.578;2023-05-23T00:56:27;99567.88;;;15.39;79.76
35489;BME280;21602;55.670;37.578;2023-05-23T00:58:53;99573.50;;;15.37;79.58
35489;BME280;21602;55.670;37.578;2023-05-23T01:01:20;99565.69;;;15.35;79.57
35489;BME280;21602;55.670;37.578;2023-05-23T01:03:46;99561.94;;;15.36;79.30
35489;BME280;21602;55.670;37.578;2023-05-23T01:06:13;99551.75;;;15.39;79.08
35489;BME280;21602;55.670;37.578;2023-05-23T01:08:41;99556.84;;;15.40;78.55
35489;BME280;21602;55.670;37.578;2023-05-23T01:11:29;99563.34;;;15.44;78.42
35489;BME280;21602;55.670;37.578;2023-05-23T01:14:00;99549.31;;;15.42;78.92
35489;BME280;21602;55.670;37.578;2023-05-23T01:16:47;99558.72;;;15.40;79.18
35489;BME280;21602;55.670;37.578;2023-05-23T01:28:04;99555.50;;;15.43;78.67
35489;BME280;21602;55.670;37.578;2023-05-23T01:30:35;99553.69;;;15.48;78.51
35489;BME280;21602;55.670;37.578;2023-05-23T01:33:04;99551.53;;;15.50;78.34
35489;BME280;21602;55.670;37.578;2023-05-23T01:35:34;99552.63;;;15.54;78.00
35489;BME280;21602;55.670;37.578;2023-05-23T01:38:00;99561.25;;;15.56;77.95
35489;BME280;21602;55.670;37.578;2023-05-23T01:40:26;99560.44;;;15.56;77.89
35489;BME280;21602;55.670;37.578;2023-05-23T01:42:54;99553.94;;;15.52;77.80
35489;BME280;21602;55.670;37.578;2023-05-23T01:45:25;99552.56;;;15.44;77.93
35489;BME280;21602;55.670;37.578;2023-05-23T01:47:52;99550.69;;;15.45;78.09
35489;BME280;21602;55.670;37.578;2023-05-23T01:50:19;99547.72;;;15.46;78.25
35489;BME280;21602;55.670;37.578;2023-05-23T01:52:46;99540.50;;;15.52;77.84
35489;BME280;21602;55.670;37.578;2023-05-23T01:55:13;99546.19;;;15.60;77.03
35489;BME280;21602;55.670;37.578;2023-05-23T01:57:41;99547.63;;;15.68;76.58
35489;BME280;21602;55.670;37.578;2023-05-23T02:00:07;99537.94;;;15.72;76.17
35489;BME280;21602;55.670;37.578;2023-05-23T02:02:40;99540.66;;;15.77;76.11
35489;BME280;21602;55.670;37.578;2023-05-23T02:05:08;99543.59;;;15.76;75.77
35489;BME280;21602;55.670;37.578;2023-05-23T02:07:35;99531.22;;;15.75;75.74
35489;BME280;21602;55.670;37.578;2023-05-23T02:10:03;99529.91;;;15.77;75.52
35489;BME280;21602;55.670;37.578;2023-05-23T02:12:31;99537.69;;;15.79;75.42
35489;BME280;21602;55.670;37.578;2023-05-23T02:14:58;99539.88;;;15.82;75.13
35489;BME280;21602;55.670;37.578;2023-05-23T02:17:24;99554.16;;;15.87;74.96
35489;BME280;21602;55.670;37.578;2023-05-23T02:19:51;99547.16;;;15.86;75.04
35489;BME280;21602;55.670;37.578;2023-05-23T02:22:18;99538.78;;;15.78;74.92
35489;BME280;21602;55.670;37.578;2023-05-23T02:24:48;99531.47;;;15.68;74.78
35489;BME280;21602;55.670;37.578;2023-05-23T02:27:14;99523.91;;;15.65;74.91
35489;BME280;21602;55.670;37.578;2023-05-23T02:29:40;99526.34;;;15.67;74.78
35489;BME280;21602;55.670;37.578;2023-05-23T02:32:06;99534.19;;;15.73;74.57
35489;BME280;21602;55.670;37.578;2023-05-23T02:34:32;99524.50;;;15.77;74.05
35489;BME280;21602;55.670;37.578;2023-05-23T02:36:57;99531.81;;;15.82;73.91
35489;BME280;21602;55.670;37.578;2023-05-23T02:39:23;99536.63;;;15.85;73.62
35489;BME280;21602;55.670;37.578;2023-05-23T02:41:49;99530.72;;;15.83;73.53
35489;BME280;21602;55.670;37.578;2023-05-23T02:44:15;99538.25;;;15.81;73.79
35489;BME280;21602;55.670;37.578;2023-05-23T02:46:44;99529.59;;;15.74;73.79
35489;BME280;21602;55.670;37.578;2023-05-23T02:49:11;99532.28;;;15.69;73.95
35489;BME280;21602;55.670;37.578;2023-05-23T02:51:36;99539.50;;;15.63;74.08
35489;BME280;21602;55.670;37.578;2023-05-23T02:54:02;99535.69;;;15.59;74.25
35489;BME280;21602;55.670;37.578;2023-05-23T02:56:30;99539.72;;;15.56;74.52
35489;BME280;21602;55.670;37.578;2023-05-23T02:58:56;99544.56;;;15.54;74.97
35489;BME280;21602;55.670;37.578;2023-05-23T03:01:22;99548.84;;;15.50;75.20
35489;BME280;21602;55.670;37.578;2023-05-23T03:03:48;99551.00;;;15.48;75.24
35489;BME280;21602;55.670;37.578;2023-05-23T03:06:13;99548.28;;;15.43;75.09
35489;BME280;21602;55.670;37.578;2023-05-23T03:08:42;99552.81;;;15.43;75.06
35489;BME280;21602;55.670;37.578;2023-05-23T03:11:09;99551.00;;;15.48;75.20
35489;BME280;21602;55.670;37.578;2023-05-23T03:13:35;99546.94;;;15.51;74.90
35489;BME280;21602;55.670;37.578;2023-05-23T03:16:01;99544.28;;;15.56;74.53
35489;BME280;21602;55.670;37.578;2023-05-23T03:18:27;99537.38;;;15.65;74.29
35489;BME280;21602;55.670;37.578;2023-05-23T03:20:55;99547.38;;;15.75;74.16
35489;BME280;21602;55.670;37.578;2023-05-23T03:23:22;99533.69;;;15.81;73.81
35489;BME280;21602;55.670;37.578;2023-05-23T03:25:48;99548.78;;;15.93;73.53
35489;BME280;21602;55.670;37.578;2023-05-23T03:28:14;99532.16;;;16.06;73.08
35489;BME280;21602;55.670;37.578;2023-05-23T03:30:40;99538.66;;;16.20;72.45
35489;BME280;21602;55.670;37.578;2023-05-23T03:33:06;99540.28;;;16.31;71.63
35489;BME280;21602;55.670;37.578;2023-05-23T03:35:33;99536.50;;;16.37;70.86
35489;BME280;21602;55.670;37.578;2023-05-23T03:37:59;99527.91;;;16.41;70.72
35489;BME280;21602;55.670;37.578;2023-05-23T03:40:25;99531.41;;;16.51;70.50
35489;BME280;21602;55.670;37.578;2023-05-23T03:43:04;99529.56;;;16.57;69.57
35489;BME280;21602;55.670;37.578;2023-05-23T03:45:31;99531.41;;;16.61;70.01
35489;BME280;21602;55.670;37.578;2023-05-23T03:48:00;99522.53;;;16.66;69.20
35489;BME280;21602;55.670;37.578;2023-05-23T03:50:26;99529.03;;;16.80;69.02
35489;BME280;21602;55.670;37.578;2023-05-23T03:52:53;99534.69;;;16.89;68.37
35489;BME280;21602;55.670;37.578;2023-05-23T03:55:20;99528.50;;;16.94;68.21
35489;BME280;21602;55.670;37.578;2023-05-23T03:57:50;99516.91;;;16.98;68.21
35489;BME280;21602;55.670;37.578;2023-05-23T04:00:19;99515.56;;;17.06;67.95
35489;BME280;21602;55.670;37.578;2023-05-23T04:02:49;99518.75;;;17.13;67.76
35489;BME280;21602;55.670;37.578;2023-05-23T04:05:18;99522.81;;;17.15;67.61
35489;BME280;21602;55.670;37.578;2023-05-23T04:07:44;99518.75;;;17.18;67.12
35489;BME280;21602;55.670;37.578;2023-05-23T04:10:10;99520.41;;;17.14;67.20
35489;BME280;21602;55.670;37.578;2023-05-23T04:12:37;99529.31;;;17.04;67.20
35489;BME280;21602;55.670;37.578;2023-05-23T04:15:08;99534.44;;;17.01;67.30
35489;BME280;21602;55.670;37.578;2023-05-23T04:17:41;99533.88;;;16.99;67.07
35489;BME280;21602;55.670;37.578;2023-05-23T04:20:09;99535.78;;;16.98;67.15
35489;BME280;21602;55.670;37.578;2023-05-23T04:22:35;99529.56;;;17.03;67.19
35489;BME280;21602;55.670;37.578;2023-05-23T04:25:04;99529.31;;;17.04;66.68
35489;BME280;21602;55.670;37.578;2023-05-23T04:27:34;99521.75;;;17.06;66.37
35489;BME280;21602;55.670;37.578;2023-05-23T04:30:06;99521.75;;;17.11;66.57
35489;BME280;21602;55.670;37.578;2023-05-23T04:32:35;99527.41;;;17.15;66.47
35489;BME280;21602;55.670;37.578;2023-05-23T04:35:01;99526.03;;;17.18;66.10
35489;BME280;21602;55.670;37.578;2023-05-23T04:37:35;99517.94;;;17.23;65.85
35489;BME280;21602;55.670;37.578;2023-05-23T04:40:02;99524.13;;;17.33;65.79
35489;BME280;21602;55.670;37.578;2023-05-23T04:42:42;99527.34;;;17.46;65.52
35489;BME280;21602;55.670;37.578;2023-05-23T04:45:22;99528.38;;;17.60;65.14
35489;BME280;21602;55.670;37.578;2023-05-23T04:47:59;99519.16;;;17.71;64.81
35489;BME280;21602;55.670;37.578;2023-05-23T04:50:42;99518.56;;;17.84;64.35
35489;BME280;21602;55.670;37.578;2023-05-23T04:53:09;99517.72;;;17.94;63.92
35489;BME280;21602;55.670;37.578;2023-05-23T04:55:35;99517.97;;;17.98;63.70
35489;BME280;21602;55.670;37.578;2023-05-23T04:58:02;99520.09;;;18.06;63.89
35489;BME280;21602;55.670;37.578;2023-05-23T05:00:28;99516.84;;;18.14;63.50
35489;BME280;21602;55.670;37.578;2023-05-23T05:02:55;99522.69;;;18.26;63.15
35489;BME280;21602;55.670;37.578;2023-05-23T05:05:43;99517.22;;;18.36;62.58
35489;BME280;21602;55.670;37.578;2023-05-23T05:08:10;99518.53;;;18.44;62.48
35489;BME280;21602;55.670;37.578;2023-05-23T05:10:39;99553.03;;;18.57;62.25
35489;BME280;21602;55.670;37.578;2023-05-23T05:13:06;99557.34;;;18.58;61.23
35489;BME280;21602;55.670;37.578;2023-05-23T05:15:44;99549.31;;;18.48;61.40
35489;BME280;21602;55.670;37.578;2023-05-23T05:18:11;99554.47;;;18.45;61.98
35489;BME280;21602;55.670;37.578;2023-05-23T05:20:45;99555.03;;;18.36;62.15
35489;BME280;21602;55.670;37.578;2023-05-23T05:23:12;99562.09;;;18.32;62.00
35489;BME280;21602;55.670;37.578;2023-05-23T05:25:38;99547.88;;;18.16;62.18
35489;BME280;21602;55.670;37.578;2023-05-23T05:28:06;99548.19;;;18.10;61.86
35489;BME280;21602;55.670;37.578;2023-05-23T05:30:37;99545.50;;;18.05;62.37
35489;BME280;21602;55.670;37.578;2023-05-23T05:33:05;99542.53;;;18.06;62.44
35489;BME280;21602;55.670;37.578;2023-05-23T05:35:32;99550.34;;;18.08;62.28
35489;BME280;21602;55.670;37.578;2023-05-23T05:38:00;99549.31;;;17.99;62.33
35489;BME280;21602;55.670;37.578;2023-05-23T05:40:27;99552.25;;;18.02;62.87
35489;BME280;21602;55.670;37.578;2023-05-23T05:42:54;99544.41;;;18.06;62.82
35489;BME280;21602;55.670;37.578;2023-05-23T05:45:21;99544.41;;;18.06;62.55
35489;BME280;21602;55.670;37.578;2023-05-23T05:47:50;99542.53;;;18.06;62.39
35489;BME280;21602;55.670;37.578;2023-05-23T05:50:18;99542.22;;;18.13;62.67
35489;BME280;21602;55.670;37.578;2023-05-23T05:52:46;99541.13;;;18.19;62.62
35489;BME280;21602;55.670;37.578;2023-05-23T05:55:12;99542.41;;;18.27;62.47
35489;BME280;21602;55.670;37.578;2023-05-23T05:57:43;99542.69;;;18.25;62.56
35489;BME280;21602;55.670;37.578;2023-05-23T06:00:12;99540.53;;;18.22;62.47
35489;BME280;21602;55.670;37.578;2023-05-23T06:02:54;99544.88;;;18.23;62.68
35489;BME280;21602;55.670;37.578;2023-05-23T06:05:32;99547.53;;;18.33;62.53
35489;BME280;21602;55.670;37.578;2023-05-23T06:08:07;99535.84;;;18.43;62.69
35489;BME280;21602;55.670;37.578;2023-05-23T06:10:36;99534.13;;;18.57;62.23
35489;BME280;21602;55.670;37.578;2023-05-23T06:13:08;99534.28;;;18.76;62.24
35489;BME280;21602;55.670;37.578;2023-05-23T06:15:40;99535.69;;;18.98;62.17
35489;BME280;21602;55.670;37.578;2023-05-23T06:18:07;99536.41;;;19.08;61.79
35489;BME280;21602;55.670;37.578;2023-05-23T06:20:34;99528.78;;;19.15;61.43
35489;BME280;21602;55.670;37.578;2023-05-23T06:23:09;99515.44;;;19.24;61.39
35489;BME280;21602;55.670;37.578;2023-05-23T06:25:38;99512.84;;;19.38;60.84
35489;BME280;21602;55.670;37.578;2023-05-23T06:28:08;99512.97;;;19.52;61.30
35489;BME280;21602;55.670;37.578;2023-05-23T06:30:35;99513.41;;;19.59;60.58
35489;BME280;21602;55.670;37.578;2023-05-23T06:33:03;99514.66;;;19.72;60.44
35489;BME280;21602;55.670;37.578;2023-05-23T06:35:30;99513.03;;;19.94;60.02
35489;BME280;21602;55.670;37.578;2023-05-23T06:37:56;99503.00;;;20.14;59.73
35489;BME280;21602;55.670;37.578;2023-05-23T06:40:23;99499.91;;;20.20;59.52
35489;BME280;21602;55.670;37.578;2023-05-23T06:42:52;99502.06;;;20.24;59.40
35489;BME280;21602;55.670;37.578;2023-05-23T06:45:45;99498.97;;;20.30;58.93
35489;BME280;21602;55.670;37.578;2023-05-23T06:48:13;99494.94;;;20.28;58.63
35489;BME280;21602;55.670;37.578;2023-05-23T06:50:40;99495.28;;;20.40;59.12
35489;BME280;21602;55.670;37.578;2023-05-23T06:53:07;99492.16;;;20.52;58.67
35489;BME280;21602;55.670;37.578;2023-05-23T06:55:33;99496.22;;;20.68;58.26
35489;BME280;21602;55.670;37.578;2023-05-23T06:58:01;99491.16;;;20.80;57.34
35489;BME280;21602;55.670;37.578;2023-05-23T07:00:30;99482.75;;;20.95;56.96
35489;BME280;21602;55.670;37.578;2023-05-23T07:03:17;99472.91;;;21.00;56.81
35489;BME280;21602;55.670;37.578;2023-05-23T07:05:43;99474.84;;;21.13;56.63
35489;BME280;21602;55.670;37.578;2023-05-23T07:08:13;99467.56;;;21.22;55.98
35489;BME280;21602;55.670;37.578;2023-05-23T07:10:48;99475.03;;;21.30;55.93
35489;BME280;21602;55.670;37.578;2023-05-23T07:13:28;99473.25;;;21.39;55.76
35489;BME280;21602;55.670;37.578;2023-05-23T07:15:58;99467.63;;;21.50;55.49
35489;BME280;21602;55.670;37.578;2023-05-23T07:18:25;99468.03;;;21.57;55.19
35489;BME280;21602;55.670;37.578;2023-05-23T07:20:52;99461.97;;;21.60;54.92
35489;BME280;21602;55.670;37.578;2023-05-23T07:23:22;99469.41;;;21.68;54.84
35489;BME280;21602;55.670;37.578;2023-05-23T07:25:50;99475.31;;;21.84;54.77
35489;BME280;21602;55.670;37.578;2023-05-23T07:28:25;99470.97;;;21.96;54.07
35489;BME280;21602;55.670;37.578;2023-05-23T07:30:54;99467.94;;;22.12;53.67
35489;BME280;21602;55.670;37.578;2023-05-23T07:33:23;99471.41;;;22.26;53.62
35489;BME280;21602;55.670;37.578;2023-05-23T07:35:52;99466.13;;;22.43;53.88
35489;BME280;21602;55.670;37.578;2023-05-23T07:38:19;99472.47;;;22.61;53.22
35489;BME280;21602;55.670;37.578;2023-05-23T07:40:45;99464.25;;;22.53;53.45
35489;BME280;21602;55.670;37.578;2023-05-23T07:43:12;99481.25;;;22.36;53.44
35489;BME280;21602;55.670;37.578;2023-05-23T07:45:38;99475.97;;;22.17;54.26
35489;BME280;21602;55.670;37.578;2023-05-23T07:48:05;99475.75;;;22.27;54.33
35489;BME280;21602;55.670;37.578;2023-05-23T07:50:31;99476.97;;;22.21;54.91
35489;BME280;21602;55.670;37.578;2023-05-23T07:52:57;99481.59;;;22.20;54.26
35489;BME280;21602;55.670;37.578;2023-05-23T07:55:27;99484.34;;;22.07;54.56
35489;BME280;21602;55.670;37.578;2023-05-23T07:57:54;99489.41;;;21.99;54.58
35489;BME280;21602;55.670;37.578;2023-05-23T08:00:24;99492.94;;;21.86;54.91
35489;BME280;21602;55.670;37.578;2023-05-23T08:02:55;99478.88;;;21.84;54.83
35489;BME280;21602;55.670;37.578;2023-05-23T08:05:27;99495.53;;;21.91;55.14
35489;BME280;21602;55.670;37.578;2023-05-23T08:07:56;99491.59;;;21.97;55.33
35489;BME280;21602;55.670;37.578;2023-05-23T08:10:23;99488.66;;;22.21;55.11
35489;BME280;21602;55.670;37.578;2023-05-23T08:12:55;99492.44;;;22.34;54.36
35489;BME280;21602;55.670;37.578;2023-05-23T08:15:22;99488.34;;;22.23;54.95
35489;BME280;21602;55.670;37.578;2023-05-23T08:18:01;99487.81;;;22.35;54.98
35489;BME280;21602;55.670;37.578;2023-05-23T08:20:27;99490.97;;;22.51;54.77
35489;BME280;21602;55.670;37.578;2023-05-23T08:23:03;99479.59;;;22.71;54.40
35489;BME280;21602;55.670;37.578;2023-05-23T08:25:29;99483.25;;;22.66;54.01
35489;BME280;21602;55.670;37.578;2023-05-23T08:27:57;99488.13;;;22.56;54.04
35489;BME280;21602;55.670;37.578;2023-05-23T08:30:38;99479.72;;;22.43;54.63
35489;BME280;21602;55.670;37.578;2023-05-23T08:33:04;99473.41;;;22.34;54.37
35489;BME280;21602;55.670;37.578;2023-05-23T08:35:36;99476.56;;;22.28;54.98
35489;BME280;21602;55.670;37.578;2023-05-23T08:38:08;99469.22;;;22.51;54.66
35489;BME280;21602;55.670;37.578;2023-05-23T08:40:38;99472.47;;;22.84;54.17
35489;BME280;21602;55.670;37.578;2023-05-23T08:43:10;99475.94;;;22.98;53.56
35489;BME280;21602;55.670;37.578;2023-05-23T08:45:37;99474.88;;;23.16;53.63
35489;BME280;21602;55.670;37.578;2023-05-23T08:48:07;99464.09;;;23.42;53.16
35489;BME280;21602;55.670;37.578;2023-05-23T08:50:39;99470.03;;;23.44;53.15
35489;BME280;21602;55.670;37.578;2023-05-23T08:53:08;99478.06;;;23.49;53.09
35489;BME280;21602;55.670;37.578;2023-05-23T08:55:39;99473.44;;;23.50;53.12
35489;BME280;21602;55.670;37.578;2023-05-23T08:58:09;99462.84;;;23.57;53.01
35489;BME280;21602;55.670;37.578;2023-05-23T09:00:50;99473.13;;;23.60;53.13
35489;BME280;21602;55.670;37.578;2023-05-23T09:03:27;99468.78;;;23.59;52.87
35489;BME280;21602;55.670;37.578;2023-05-23T09:06:21;99479.47;;;23.38;53.51
35489;BME280;21602;55.670;37.578;2023-05-23T09:08:50;99480.56;;;22.97;54.06
35489;BME280;21602;55.670;37.578;2023-05-23T09:11:19;99484.84;;;22.90;54.47
35489;BME280;21602;55.670;37.578;2023-05-23T09:13:54;99487.81;;;22.80;55.04
35489;BME280;21602;55.670;37.578;2023-05-23T09:16:22;99495.34;;;22.83;55.81
35489;BME280;21602;55.670;37.578;2023-05-23T09:18:56;99487.91;;;22.97;56.43
35489;BME280;21602;55.670;37.578;2023-05-23T09:21:30;99490.03;;;22.78;57.13
35489;BME280;21602;55.670;37.578;2023-05-23T09:24:13;99500.88;;;22.46;57.83
35489;BME280;21602;55.670;37.578;2023-05-23T09:26:40;99490.47;;;22.48;58.11
35489;BME280;21602;55.670;37.578;2023-05-23T09:29:06;99502.91;;;22.41;58.57
35489;BME280;21602;55.670;37.578;2023-05-23T09:31:32;99506.19;;;22.52;58.72
35489;BME280;21602;55.670;37.578;2023-05-23T09:34:00;99503.66;;;22.55;59.26
35489;BME280;21602;55.670;37.578;2023-05-23T09:36:28;99511.63;;;22.52;59.23
35489;BME280;21602;55.670;37.578;2023-05-23T09:39:02;99507.88;;;22.25;59.79
35489;BME280;21602;55.670;37.578;2023-05-23T09:41:32;99511.63;;;22.02;59.92
35489;BME280;21602;55.670;37.578;2023-05-23T09:43:58;99507.41;;;21.95;59.91
35489;BME280;21602;55.670;37.578;2023-05-23T09:46:30;99508.66;;;21.89;60.88
35489;BME280;21602;55.670;37.578;2023-05-23T09:48:56;99505.25;;;21.70;62.09
35489;BME280;21602;55.670;37.578;2023-05-23T09:51:25;99510.47;;;21.53;63.44
35489;BME280;21602;55.670;37.578;2023-05-23T09:53:53;99505.47;;;21.46;63.83
35489;BME280;21602;55.670;37.578;2023-05-23T09:56:20;99511.59;;;21.52;64.15
35489;BME280;21602;55.670;37.578;2023-05-23T09:58:49;99508.47;;;21.44;65.15
35489;BME280;21602;55.670;37.578;2023-05-23T10:01:16;99515.00;;;20.97;66.05
35489;BME280;21602;55.670;37.578;2023-05-23T10:03:50;99512.34;;;20.78;67.48
35489;BME280;21602;55.670;37.578;2023-05-23T10:06:18;99512.19;;;20.56;67.66
35489;BME280;21602;55.670;37.578;2023-05-23T10:09:10;99520.88;;;20.53;68.50
35489;BME280;21602;55.670;37.578;2023-05-23T10:15:15;99516.41;;;20.24;70.07
35489;BME280;21602;55.670;37.578;2023-05-23T10:20:40;99513.91;;;20.28;70.01
35489;BME280;21602;55.670;37.578;2023-05-23T10:23:42;99512.09;;;20.23;70.11
35489;BME280;21602;55.670;37.578;2023-05-23T10:27:01;99515.28;;;20.25;70.86
35489;BME280;21602;55.670;37.578;2023-05-23T10:29:59;99515.38;;;20.20;71.41
35489;BME280;21602;55.670;37.578;2023-05-23T10:32:34;99514.91;;;20.32;70.99
35489;BME280;21602;55.670;37.578;2023-05-23T10:38:19;99522.72;;;20.57;70.86
35489;BME280;21602;55.670;37.578;2023-05-23T10:45:04;99526.31;;;20.53;71.62
35489;BME280;21602;55.670;37.578;2023-05-23T10:47:40;99523.81;;;20.37;72.27
35489;BME280;21602;55.670;37.578;2023-05-23T10:50:16;99526.53;;;20.37;73.05
35489;BME280;21602;55.670;37.578;2023-05-23T10:53:23;99527.91;;;20.35;74.19
35489;BME280;21602;55.670;37.578;2023-05-23T10:56:08;99519.13;;;20.24;74.20
35489;BME280;21602;55.670;37.578;2023-05-23T11:02:31;99517.25;;;19.82;76.18
35489;BME280;21602;55.670;37.578;2023-05-23T11:05:30;99521.38;;;19.74;77.42
35489;BME280;21602;55.670;37.578;2023-05-23T11:08:41;99524.75;;;19.66;77.95
35489;BME280;21602;55.670;37.578;2023-05-23T11:11:24;99522.34;;;19.59;79.30
35489;BME280;21602;55.670;37.578;2023-05-23T11:14:16;99531.41;;;19.50;79.22
35489;BME280;21602;55.670;37.578;2023-05-23T11:17:02;99525.09;;;19.30;79.72
35489;BME280;21602;55.670;37.578;2023-05-23T11:20:04;99526.63;;;19.12;81.33
35489;BME280;21602;55.670;37.578;2023-05-23T11:23:06;99524.63;;;18.94;82.31
35489;BME280;21602;55.670;37.578;2023-05-23T11:25:48;99525.31;;;18.81;83.32
35489;BME280;21602;55.670;37.578;2023-05-23T11:28:54;99531.28;;;18.78;83.94
35489;BME280;21602;55.670;37.578;2023-05-23T11:31:52;99532.63;;;18.75;84.00
35489;BME280;21602;55.670;37.578;2023-05-23T11:34:53;99529.13;;;18.75;85.50
35489;BME280;21602;55.670;37.578;2023-05-23T11:46:16;99532.09;;;18.78;86.23
35489;BME280;21602;55.670;37.578;2023-05-23T12:04:41;99512.13;;;19.27;85.72
35489;BME280;21602;55.670;37.578;2023-05-23T12:07:53;99505.25;;;19.40;85.28
35489;BME280;21602;55.670;37.578;2023-05-23T12:22:55;99488.56;;;20.00;82.58
35489;BME280;21602;55.670;37.578;2023-05-23T12:26:40;99484.38;;;20.07;82.40
35489;BME280;21602;55.670;37.578;2023-05-23T12:44:14;99469.75;;;20.27;80.67
35489;BME280;21602;55.670;37.578;2023-05-23T12:46:41;99476.09;;;20.36;79.78
35489;BME280;21602;55.670;37.578;2023-05-23T12:49:07;99462.97;;;20.43;79.48
35489;BME280;21602;55.670;37.578;2023-05-23T12:51:32;99461.31;;;20.48;78.74
35489;BME280;21602;55.670;37.578;2023-05-23T12:53:58;99454.78;;;20.49;78.48
35489;BME280;21602;55.670;37.578;2023-05-23T12:56:25;99458.91;;;20.60;78.65
35489;BME280;21602;55.670;37.578;2023-05-23T12:58:51;99454.81;;;20.62;77.60
35489;BME280;21602;55.670;37.578;2023-05-23T13:01:18;99461.69;;;20.74;77.33
35489;BME280;21602;55.670;37.578;2023-05-23T13:03:44;99453.38;;;20.97;76.61
35489;BME280;21602;55.670;37.578;2023-05-23T13:06:10;99455.63;;;21.23;75.42
35489;BME280;21602;55.670;37.578;2023-05-23T13:08:36;99441.38;;;21.45;74.11
35489;BME280;21602;55.670;37.578;2023-05-23T13:11:04;99436.44;;;21.47;73.33
35489;BME280;21602;55.670;37.578;2023-05-23T13:13:30;99436.44;;;21.61;72.80
35489;BME280;21602;55.670;37.578;2023-05-23T13:15:58;99438.81;;;21.76;71.49
35489;BME280;21602;55.670;37.578;2023-05-23T13:18:25;99439.41;;;21.73;71.88
35489;BME280;21602;55.670;37.578;2023-05-23T13:20:52;99441.56;;;21.62;71.55
35489;BME280;21602;55.670;37.578;2023-05-23T13:23:17;99445.19;;;21.58;71.37
35489;BME280;21602;55.670;37.578;2023-05-23T13:25:43;99449.00;;;21.70;71.58
35489;BME280;21602;55.670;37.578;2023-05-23T13:28:09;99451.19;;;21.82;71.53
35489;BME280;21602;55.670;37.578;2023-05-23T13:30:35;99447.28;;;21.75;70.89
35489;BME280;21602;55.670;37.578;2023-05-23T13:33:02;99454.13;;;21.72;71.42
35489;BME280;21602;55.670;37.578;2023-05-23T13:35:28;99452.88;;;21.78;71.13
35489;BME280;21602;55.670;37.578;2023-05-23T13:37:56;99453.50;;;21.89;70.88
35489;BME280;21602;55.670;37.578;2023-05-23T13:40:23;99451.56;;;21.89;70.35
35489;BME280;21602;55.670;37.578;2023-05-23T13:42:50;99454.88;;;21.86;69.86
35489;BME280;21602;55.670;37.578;2023-05-23T13:45:17;99455.38;;;21.88;70.01
35489;BME280;21602;55.670;37.578;2023-05-23T13:47:43;99452.97;;;21.87;69.79
35489;BME280;21602;55.670;37.578;2023-05-23T13:50:09;99454.53;;;21.79;69.95
35489;BME280;21602;55.670;37.578;2023-05-23T13:52:38;99452.63;;;21.66;70.16
35489;BME280;21602;55.670;37.578;2023-05-23T13:55:04;99452.31;;;21.54;70.15
35489;BME280;21602;55.670;37.578;2023-05-23T13:57:31;99456.97;;;21.53;70.53
35489;BME280;21602;55.670;37.578;2023-05-23T13:59:57;99450.13;;;21.56;70.88
35489;BME280;21602;55.670;37.578;2023-05-23T14:02:24;99445.66;;;21.60;70.93
35489;BME280;21602;55.670;37.578;2023-05-23T14:04:51;99450.03;;;21.61;70.45
35489;BME280;21602;55.670;37.578;2023-05-23T14:07:17;99450.53;;;21.49;70.03
35489;BME280;21602;55.670;37.578;2023-05-23T14:09:43;99448.72;;;21.31;70.06
35489;BME280;21602;55.670;37.578;2023-05-23T14:12:09;99446.47;;;21.19;70.00
35489;BME280;21602;55.670;37.578;2023-05-23T14:14:35;99448.78;;;21.12;70.61
35489;BME280;21602;55.670;37.578;2023-05-23T14:17:01;99449.50;;;21.04;71.39
35489;BME280;21602;55.670;37.578;2023-05-23T14:19:27;99441.63;;;21.02;71.42
35489;BME280;21602;55.670;37.578;2023-05-23T14:21:53;99442.44;;;21.03;70.93
35489;BME280;21602;55.670;37.578;2023-05-23T14:24:19;99438.00;;;21.07;70.76
35489;BME280;21602;55.670;37.578;2023-05-23T14:26:47;99440.72;;;21.07;70.97